Time;durP1;ratioP1;P1;durP2;ratioP2;P2;SDS_P1;SDS_P2;PMS_P1;PMS_P2;Temp;Humidity;BMP_temperature;BMP_pressure;BME280_temperature;BME280_humidity;BME280_pressure;Samples;Min_cycle;Max_cycle;Signal;HPM_P1;HPM_P2
2024/01/24 00:02:12;;;;;;;39.05;7.45;;;;;;;;;;4988326;28;20054;-68
2024/01/24 00:04:38;;;;;;;37.00;7.20;;;;;;;;;;4991107;28;20154;-68
2024/01/24 00:07:04;;;;;;;36.95;7.85;;;;;;;;;;4988984;28;20125;-68
2024/01/24 00:09:32;;;;;;;42.00;8.13;;;;;;;;;;4988562;28;20039;-68
2024/01/24 00:11:58;;;;;;;35.40;8.60;;;;;;;;;;4991237;28;20428;-68
2024/01/24 00:14:24;;;;;;;29.77;7.30;;;;;;;;;;4990470;28;20132;-68
2024/01/24 00:16:50;;;;;;;33.22;7.30;;;;;;;;;;4994283;28;20050;-68
2024/01/24 00:19:16;;;;;;;30.35;6.97;;;;;;;;;;4991386;28;20030;-68
2024/01/24 00:21:42;;;;;;;30.40;6.65;;;;;;;;;;4980242;28;20402;-68
2024/01/24 00:24:08;;;;;;;27.38;6.22;;;;;;;;;;4989183;28;20046;-68
2024/01/24 00:26:37;;;;;;;23.95;6.25;;;;;;;;;;4988577;28;20100;-69
2024/01/24 00:29:03;;;;;;;21.80;5.68;;;;;;;;;;4992912;28;20051;-69
2024/01/24 00:31:29;;;;;;;29.77;6.28;;;;;;;;;;4986264;28;20042;-68
2024/01/24 00:33:55;;;;;;;18.23;4.85;;;;;;;;;;4991102;28;20054;-69
2024/01/24 00:36:25;;;;;;;25.10;5.75;;;;;;;;;;4980207;28;20034;-69
2024/01/24 00:38:51;;;;;;;30.08;7.18;;;;;;;;;;4996806;28;20109;-68
2024/01/24 00:41:17;;;;;;;26.02;6.68;;;;;;;;;;5013586;28;20042;-68
2024/01/24 00:43:43;;;;;;;30.38;6.55;;;;;;;;;;4988808;28;20042;-68
2024/01/24 00:46:09;;;;;;;30.95;5.85;;;;;;;;;;4983512;28;20042;-68
2024/01/24 00:48:38;;;;;;;25.33;6.03;;;;;;;;;;4988742;28;20474;-68
2024/01/24 00:51:04;;;;;;;33.35;7.25;;;;;;;;;;4989657;28;20093;-68
2024/01/24 00:53:33;;;;;;;27.08;7.13;;;;;;;;;;4988345;28;20081;-69
2024/01/24 00:55:59;;;;;;;21.98;6.22;;;;;;;;;;4994391;28;20410;-68
2024/01/24 00:58:25;;;;;;;23.58;6.05;;;;;;;;;;4990293;28;20062;-68
2024/01/24 01:00:51;;;;;;;30.90;6.32;;;;;;;;;;4986912;28;20042;-68
2024/01/24 01:03:17;;;;;;;36.25;7.57;;;;;;;;;;4989933;28;20045;-68
2024/01/24 01:05:43;;;;;;;32.92;7.75;;;;;;;;;;4986386;28;20134;-68
2024/01/24 01:08:09;;;;;;;34.92;7.50;;;;;;;;;;4986533;28;20125;-69
2024/01/24 01:10:35;;;;;;;26.75;6.03;;;;;;;;;;5020769;28;20117;-68
2024/01/24 01:13:03;;;;;;;27.27;7.03;;;;;;;;;;4996471;28;20057;-68
2024/01/24 01:15:29;;;;;;;31.45;6.75;;;;;;;;;;4988734;28;20058;-69
2024/01/24 01:17:55;;;;;;;16.70;5.70;;;;;;;;;;4989994;28;20046;-68
2024/01/24 01:20:21;;;;;;;29.17;5.90;;;;;;;;;;4993121;28;20049;-68
2024/01/24 01:22:47;;;;;;;24.15;6.50;;;;;;;;;;4991147;28;20471;-68
2024/01/24 01:25:13;;;;;;;32.25;6.53;;;;;;;;;;4992966;28;20045;-68
2024/01/24 01:27:39;;;;;;;26.63;6.22;;;;;;;;;;4991190;28;20058;-69
2024/01/24 01:30:06;;;;;;;29.52;7.43;;;;;;;;;;4989103;28;20121;-69
2024/01/24 01:32:32;;;;;;;27.70;5.97;;;;;;;;;;4994688;28;20058;-69
2024/01/24 01:34:59;;;;;;;20.13;6.38;;;;;;;;;;4989110;28;20112;-68
2024/01/24 01:37:25;;;;;;;26.67;6.18;;;;;;;;;;5017232;28;20057;-68
2024/01/24 01:39:51;;;;;;;29.50;7.78;;;;;;;;;;4985405;28;21606;-68
2024/01/24 01:42:17;;;;;;;28.02;5.70;;;;;;;;;;5015610;28;20108;-68
2024/01/24 01:44:48;;;;;;;24.60;5.88;;;;;;;;;;4986671;28;20050;-68
2024/01/24 01:47:15;;;;;;;20.85;5.47;;;;;;;;;;5016765;28;20054;-68
2024/01/24 01:49:44;;;;;;;28.60;6.88;;;;;;;;;;4986543;28;20081;-69
2024/01/24 01:52:10;;;;;;;32.22;7.03;;;;;;;;;;4984936;28;20069;-69
2024/01/24 01:54:37;;;;;;;27.30;6.30;;;;;;;;;;4981331;28;21002;-69
2024/01/24 01:57:04;;;;;;;24.88;6.65;;;;;;;;;;4984267;28;20557;-68
2024/01/24 01:59:31;;;;;;;25.85;5.63;;;;;;;;;;4992610;28;20517;-68
2024/01/24 02:01:57;;;;;;;21.85;5.78;;;;;;;;;;4995232;28;20197;-68
2024/01/24 02:04:24;;;;;;;30.73;7.22;;;;;;;;;;4989500;28;20532;-69
2024/01/24 02:06:50;;;;;;;32.72;6.55;;;;;;;;;;4989769;28;20490;-69
2024/01/24 02:09:16;;;;;;;28.58;7.60;;;;;;;;;;4986775;28;20117;-69
2024/01/24 02:11:42;;;;;;;29.65;6.72;;;;;;;;;;4989904;28;20046;-69
2024/01/24 02:14:08;;;;;;;22.52;5.20;;;;;;;;;;4989975;28;20043;-68
2024/01/24 02:16:34;;;;;;;21.88;6.78;;;;;;;;;;4992512;28;20050;-68
2024/01/24 02:19:01;;;;;;;24.20;5.63;;;;;;;;;;4993922;28;20049;-68
2024/01/24 02:21:27;;;;;;;22.88;6.82;;;;;;;;;;4989511;28;20121;-68
2024/01/24 02:23:54;;;;;;;22.40;5.93;;;;;;;;;;4988055;28;20454;-68
2024/01/24 02:26:20;;;;;;;30.08;7.88;;;;;;;;;;4990658;28;20053;-68
2024/01/24 02:28:46;;;;;;;27.17;6.25;;;;;;;;;;4983970;28;20532;-68
2024/01/24 02:31:12;;;;;;;21.83;5.80;;;;;;;;;;4989350;28;20521;-68
2024/01/24 02:33:38;;;;;;;23.63;6.55;;;;;;;;;;5022583;28;20054;-69
2024/01/24 02:36:04;;;;;;;28.63;6.57;;;;;;;;;;5024402;28;20112;-68
2024/01/24 02:38:30;;;;;;;24.58;6.60;;;;;;;;;;5021386;28;20054;-69
2024/01/24 02:40:56;;;;;;;19.75;5.47;;;;;;;;;;4980585;28;20108;-68
2024/01/24 02:43:22;;;;;;;26.48;6.43;;;;;;;;;;5015098;28;20778;-68
2024/01/24 02:45:48;;;;;;;19.90;6.30;;;;;;;;;;4983269;28;20050;-69
2024/01/24 02:48:14;;;;;;;29.67;6.80;;;;;;;;;;4983320;28;20058;-68
2024/01/24 02:50:40;;;;;;;26.33;6.15;;;;;;;;;;4981967;28;20046;-68
2024/01/24 02:53:06;;;;;;;25.35;5.88;;;;;;;;;;5016488;28;20050;-68
2024/01/24 02:55:32;;;;;;;24.73;6.38;;;;;;;;;;4985033;28;20041;-68
2024/01/24 02:57:58;;;;;;;26.38;5.88;;;;;;;;;;5018765;28;20050;-68
2024/01/24 03:00:24;;;;;;;35.90;7.18;;;;;;;;;;4984411;28;20078;-68
2024/01/24 03:02:50;;;;;;;26.77;6.45;;;;;;;;;;5016626;28;20068;-68
2024/01/24 03:05:17;;;;;;;29.15;6.68;;;;;;;;;;4981519;28;20046;-68
2024/01/24 03:07:43;;;;;;;29.25;6.22;;;;;;;;;;4985318;28;20053;-68
2024/01/24 03:10:09;;;;;;;29.75;7.28;;;;;;;;;;4987111;28;20510;-68
2024/01/24 03:12:35;;;;;;;32.85;7.22;;;;;;;;;;4992398;28;20042;-69
2024/01/24 03:15:01;;;;;;;32.97;6.97;;;;;;;;;;4992518;28;20192;-69
2024/01/24 03:17:27;;;;;;;27.67;6.65;;;;;;;;;;4988192;28;20530;-68
2024/01/24 03:19:56;;;;;;;35.63;7.68;;;;;;;;;;4989420;28;20054;-68
2024/01/24 03:22:24;;;;;;;22.02;6.90;;;;;;;;;;4993530;28;20130;-69
2024/01/24 03:24:51;;;;;;;30.77;7.20;;;;;;;;;;4991713;28;20069;-68
2024/01/24 03:27:20;;;;;;;31.10;7.20;;;;;;;;;;4990827;28;20049;-68
2024/01/24 03:29:46;;;;;;;19.55;6.07;;;;;;;;;;4989903;28;20494;-68
2024/01/24 03:32:12;;;;;;;24.88;6.63;;;;;;;;;;4985249;28;20054;-68
2024/01/24 03:34:38;;;;;;;19.63;5.10;;;;;;;;;;5020609;28;20101;-68
2024/01/24 03:37:04;;;;;;;32.95;7.70;;;;;;;;;;4986682;28;20509;-68
2024/01/24 03:39:30;;;;;;;23.80;6.22;;;;;;;;;;4991855;28;20046;-69
2024/01/24 03:41:56;;;;;;;32.67;6.40;;;;;;;;;;5021812;28;20129;-68
2024/01/24 03:44:22;;;;;;;31.67;8.68;;;;;;;;;;4984574;28;20050;-68
2024/01/24 03:46:51;;;;;;;33.75;6.80;;;;;;;;;;4982470;28;20443;-68
2024/01/24 03:49:20;;;;;;;47.63;8.45;;;;;;;;;;5017232;28;20049;-68
2024/01/24 03:51:46;;;;;;;35.58;7.05;;;;;;;;;;4984664;28;20059;-68
2024/01/24 03:54:12;;;;;;;33.70;9.77;;;;;;;;;;4982551;28;20050;-69
2024/01/24 03:56:38;;;;;;;37.50;8.18;;;;;;;;;;4982686;28;20078;-68
2024/01/24 03:59:04;;;;;;;35.08;7.90;;;;;;;;;;5014294;28;20127;-68
2024/01/24 04:01:31;;;;;;;38.97;8.60;;;;;;;;;;5013445;28;20384;-68
2024/01/24 04:03:57;;;;;;;36.13;7.55;;;;;;;;;;5016229;28;20082;-68
2024/01/24 04:06:23;;;;;;;35.88;7.47;;;;;;;;;;4982474;28;20453;-68
2024/01/24 04:08:49;;;;;;;40.17;7.43;;;;;;;;;;4984829;28;20133;-69
2024/01/24 04:11:15;;;;;;;37.05;7.85;;;;;;;;;;5012490;28;20065;-68
2024/01/24 04:13:45;;;;;;;41.28;8.60;;;;;;;;;;4984368;28;20046;-68
2024/01/24 04:16:11;;;;;;;45.80;8.30;;;;;;;;;;4984339;28;20046;-68
2024/01/24 04:18:37;;;;;;;39.20;8.48;;;;;;;;;;4987987;28;20042;-68
2024/01/24 04:21:03;;;;;;;33.25;7.68;;;;;;;;;;4992168;28;20117;-68
2024/01/24 04:23:29;;;;;;;39.67;7.47;;;;;;;;;;4988481;28;20105;-69
2024/01/24 04:25:55;;;;;;;41.60;9.88;;;;;;;;;;4991004;28;20116;-69
2024/01/24 04:28:21;;;;;;;30.40;7.22;;;;;;;;;;4991922;28;20482;-69
2024/01/24 04:30:48;;;;;;;40.72;7.80;;;;;;;;;;4998083;28;20049;-68
2024/01/24 04:33:14;;;;;;;45.72;9.27;;;;;;;;;;4992541;28;20050;-68
2024/01/24 04:36:01;;;;;;;33.45;8.57;;;;;;;;;;4994438;28;20046;-68
2024/01/24 04:38:27;;;;;;;41.53;10.15;;;;;;;;;;5002073;28;20069;-68
2024/01/24 04:40:53;;;;;;;45.05;10.27;;;;;;;;;;4992387;28;20069;-68
2024/01/24 04:43:19;;;;;;;35.25;8.38;;;;;;;;;;4991640;28;20125;-68
2024/01/24 04:45:45;;;;;;;41.38;8.40;;;;;;;;;;4996278;28;20053;-68
2024/01/24 04:48:11;;;;;;;43.42;9.77;;;;;;;;;;4998652;28;20050;-69
2024/01/24 04:50:37;;;;;;;42.83;9.55;;;;;;;;;;4994336;28;20061;-68
2024/01/24 04:53:03;;;;;;;52.45;10.13;;;;;;;;;;4996807;28;20050;-68
2024/01/24 04:55:30;;;;;;;52.92;10.95;;;;;;;;;;4991584;28;20069;-68
2024/01/24 04:57:56;;;;;;;50.80;10.73;;;;;;;;;;4991916;28;20050;-68
2024/01/24 05:00:22;;;;;;;41.83;10.30;;;;;;;;;;4992868;28;20096;-68
2024/01/24 05:02:48;;;;;;;41.22;9.43;;;;;;;;;;4990171;28;20062;-68
2024/01/24 05:05:14;;;;;;;44.05;9.60;;;;;;;;;;4997876;28;20659;-68
2024/01/24 05:07:40;;;;;;;48.45;11.20;;;;;;;;;;4992906;28;20042;-68
2024/01/24 05:10:06;;;;;;;47.38;11.57;;;;;;;;;;4995597;28;20066;-68
2024/01/24 05:12:32;;;;;;;40.55;9.65;;;;;;;;;;4994882;28;20445;-68
2024/01/24 05:14:58;;;;;;;56.28;11.80;;;;;;;;;;4995104;28;20052;-68
2024/01/24 05:17:24;;;;;;;47.00;10.70;;;;;;;;;;4996279;28;20054;-68
2024/01/24 05:19:51;;;;;;;51.95;11.82;;;;;;;;;;4990960;28;20043;-69
2024/01/24 05:22:18;;;;;;;38.50;9.57;;;;;;;;;;4995538;28;20058;-68
2024/01/24 05:24:45;;;;;;;51.88;10.98;;;;;;;;;;4996498;28;20069;-68
2024/01/24 05:27:11;;;;;;;49.15;11.00;;;;;;;;;;4997131;28;20046;-68
2024/01/24 05:29:37;;;;;;;59.10;10.88;;;;;;;;;;4996323;28;20050;-68
2024/01/24 05:32:03;;;;;;;40.80;8.23;;;;;;;;;;4993509;28;20050;-68
2024/01/24 05:34:29;;;;;;;55.70;11.13;;;;;;;;;;4998053;28;20044;-69
2024/01/24 05:36:55;;;;;;;60.15;11.25;;;;;;;;;;4990931;28;20113;-68
2024/01/24 05:39:21;;;;;;;44.70;10.95;;;;;;;;;;4996084;28;20050;-68
2024/01/24 05:41:47;;;;;;;51.88;11.63;;;;;;;;;;4987740;28;20048;-68
2024/01/24 05:44:13;;;;;;;54.13;11.32;;;;;;;;;;5023186;28;20478;-68
2024/01/24 05:46:39;;;;;;;40.28;9.88;;;;;;;;;;4990294;28;20053;-68
2024/01/24 05:49:06;;;;;;;42.90;10.27;;;;;;;;;;4987914;28;20058;-68
2024/01/24 05:51:32;;;;;;;36.40;8.60;;;;;;;;;;4990668;28;20977;-68
2024/01/24 05:53:58;;;;;;;46.13;9.85;;;;;;;;;;4990119;28;20042;-69
2024/01/24 05:56:24;;;;;;;38.88;9.68;;;;;;;;;;4984431;28;20050;-68
2024/01/24 05:58:50;;;;;;;45.95;10.77;;;;;;;;;;4987406;28;20042;-68
2024/01/24 06:01:16;;;;;;;53.20;12.15;;;;;;;;;;5024562;28;20506;-68
2024/01/24 06:03:42;;;;;;;55.72;10.95;;;;;;;;;;4994995;28;20047;-68
2024/01/24 06:06:08;;;;;;;55.63;11.82;;;;;;;;;;4991671;28;20136;-68
2024/01/24 06:08:34;;;;;;;46.60;10.52;;;;;;;;;;4989333;28;20529;-69
2024/01/24 06:11:00;;;;;;;52.72;10.52;;;;;;;;;;4992292;28;20112;-68
2024/01/24 06:13:27;;;;;;;44.47;11.07;;;;;;;;;;4990095;28;20055;-68
2024/01/24 06:15:56;;;;;;;48.05;12.00;;;;;;;;;;4989417;28;20050;-68
2024/01/24 06:18:25;;;;;;;50.67;11.15;;;;;;;;;;4994287;28;20042;-68
2024/01/24 06:20:51;;;;;;;52.33;10.30;;;;;;;;;;4992822;28;20049;-68
2024/01/24 06:23:17;;;;;;;52.00;10.63;;;;;;;;;;4988340;28;20046;-68
2024/01/24 06:25:43;;;;;;;35.42;8.60;;;;;;;;;;4991219;28;20534;-68
2024/01/24 06:28:09;;;;;;;53.00;11.38;;;;;;;;;;4991045;28;21793;-68
2024/01/24 06:30:35;;;;;;;40.42;9.98;;;;;;;;;;4985885;28;20043;-68
2024/01/24 06:33:04;;;;;;;35.92;10.38;;;;;;;;;;4993088;28;20173;-68
2024/01/24 06:35:31;;;;;;;48.42;10.88;;;;;;;;;;4984911;28;20038;-68
2024/01/24 06:37:57;;;;;;;45.30;10.93;;;;;;;;;;4991148;28;20042;-68
2024/01/24 06:40:23;;;;;;;44.85;9.80;;;;;;;;;;5019814;28;20438;-68
2024/01/24 06:42:50;;;;;;;35.30;9.02;;;;;;;;;;4991176;28;20050;-68
2024/01/24 06:45:16;;;;;;;37.05;8.00;;;;;;;;;;4990716;28;20058;-68
2024/01/24 06:47:45;;;;;;;41.13;10.73;;;;;;;;;;4988342;28;20054;-69
2024/01/24 06:50:13;;;;;;;47.13;10.40;;;;;;;;;;4986285;28;20810;-68
2024/01/24 06:52:40;;;;;;;49.60;10.93;;;;;;;;;;4988028;28;20078;-68
2024/01/24 06:55:06;;;;;;;35.80;10.07;;;;;;;;;;5024653;28;20047;-68
2024/01/24 06:57:32;;;;;;;32.58;9.00;;;;;;;;;;5021561;28;20054;-69
2024/01/24 06:59:58;;;;;;;41.00;11.00;;;;;;;;;;4994564;28;20035;-68
2024/01/24 07:02:24;;;;;;;53.47;9.85;;;;;;;;;;4982145;28;20051;-68
2024/01/24 07:04:50;;;;;;;46.22;11.57;;;;;;;;;;4983605;28;20054;-68
2024/01/24 07:07:16;;;;;;;46.75;10.82;;;;;;;;;;4981136;28;20215;-68
2024/01/24 07:09:42;;;;;;;41.65;10.07;;;;;;;;;;4983327;28;20050;-69
2024/01/24 07:12:08;;;;;;;48.58;10.38;;;;;;;;;;5016176;28;20057;-68
2024/01/24 07:14:35;;;;;;;32.38;8.65;;;;;;;;;;4982344;28;20049;-68
2024/01/24 07:17:02;;;;;;;39.17;9.45;;;;;;;;;;5015417;28;20054;-68
2024/01/24 07:19:30;;;;;;;59.88;10.82;;;;;;;;;;4983185;28;20070;-69
2024/01/24 07:21:56;;;;;;;39.10;10.43;;;;;;;;;;4997001;28;20057;-68
2024/01/24 07:24:22;;;;;;;46.60;10.80;;;;;;;;;;4987274;28;20141;-68
2024/01/24 07:26:48;;;;;;;45.65;8.52;;;;;;;;;;5027335;28;20580;-68
2024/01/24 07:29:15;;;;;;;44.45;9.95;;;;;;;;;;4997074;28;20089;-68
2024/01/24 07:31:41;;;;;;;46.40;9.40;;;;;;;;;;4983643;28;20038;-68
2024/01/24 07:34:07;;;;;;;42.83;8.80;;;;;;;;;;4990461;28;20410;-68
2024/01/24 07:36:33;;;;;;;45.53;11.13;;;;;;;;;;4986519;28;20104;-69
2024/01/24 07:38:59;;;;;;;42.70;11.07;;;;;;;;;;4981017;28;20045;-69
2024/01/24 07:41:25;;;;;;;52.90;10.65;;;;;;;;;;4991526;28;20107;-68
2024/01/24 07:43:51;;;;;;;58.13;12.13;;;;;;;;;;4985091;28;20137;-68
2024/01/24 07:46:17;;;;;;;43.47;9.25;;;;;;;;;;4994386;28;20050;-69
2024/01/24 07:48:43;;;;;;;31.55;8.18;;;;;;;;;;4980682;28;20054;-68
2024/01/24 07:51:09;;;;;;;38.78;8.70;;;;;;;;;;4988847;28;20045;-69
2024/01/24 07:53:38;;;;;;;51.35;11.10;;;;;;;;;;4988450;28;20410;-69
2024/01/24 07:56:04;;;;;;;43.00;10.70;;;;;;;;;;4990861;28;20058;-69
2024/01/24 07:58:30;;;;;;;40.45;8.55;;;;;;;;;;4985230;28;21143;-69
2024/01/24 08:00:56;;;;;;;38.22;8.15;;;;;;;;;;4993540;28;20050;-68
2024/01/24 08:03:22;;;;;;;51.97;10.85;;;;;;;;;;4989465;28;20058;-69
2024/01/24 08:05:48;;;;;;;47.35;10.05;;;;;;;;;;4985789;28;20030;-68
2024/01/24 08:08:14;;;;;;;43.10;9.00;;;;;;;;;;5023433;28;20050;-69
2024/01/24 08:10:40;;;;;;;40.28;9.25;;;;;;;;;;5023379;28;20042;-69
2024/01/24 08:13:09;;;;;;;43.20;9.75;;;;;;;;;;4996175;28;20077;-69
2024/01/24 08:15:35;;;;;;;40.55;9.10;;;;;;;;;;5000841;28;20466;-69
2024/01/24 08:18:01;;;;;;;33.80;9.00;;;;;;;;;;4989866;28;20121;-69
2024/01/24 08:20:27;;;;;;;37.97;8.40;;;;;;;;;;5018648;28;20049;-69
2024/01/24 08:22:53;;;;;;;31.58;8.52;;;;;;;;;;4985442;28;20047;-69
2024/01/24 08:25:19;;;;;;;34.70;8.55;;;;;;;;;;4992929;28;20078;-68
2024/01/24 08:27:45;;;;;;;26.92;7.28;;;;;;;;;;4987095;28;20054;-68
2024/01/24 08:30:14;;;;;;;54.25;9.35;;;;;;;;;;4991146;28;20034;-69
2024/01/24 08:32:41;;;;;;;40.47;8.50;;;;;;;;;;4988797;28;20042;-68
2024/01/24 08:35:08;;;;;;;40.35;10.30;;;;;;;;;;4985876;28;20399;-68
2024/01/24 08:37:34;;;;;;;41.03;9.23;;;;;;;;;;5024929;28;20061;-69
2024/01/24 08:40:00;;;;;;;34.85;9.40;;;;;;;;;;4990743;28;20049;-69
2024/01/24 08:42:26;;;;;;;39.35;8.07;;;;;;;;;;5021769;28;20125;-69
2024/01/24 08:44:52;;;;;;;43.58;8.60;;;;;;;;;;4985222;28;20486;-69
2024/01/24 08:47:18;;;;;;;41.55;10.10;;;;;;;;;;4991492;28;20038;-68
2024/01/24 08:49:52;;;;;;;36.55;8.18;;;;;;;;;;4987884;28;20042;-69
2024/01/24 08:52:18;;;;;;;51.30;9.18;;;;;;;;;;4989937;28;20108;-69
2024/01/24 08:54:45;;;;;;;41.10;8.75;;;;;;;;;;4985396;28;20209;-69
2024/01/24 08:57:11;;;;;;;36.17;9.98;;;;;;;;;;4985397;28;20042;-69
2024/01/24 08:59:38;;;;;;;44.47;9.63;;;;;;;;;;5021508;28;20100;-69
2024/01/24 09:02:06;;;;;;;47.63;9.95;;;;;;;;;;4983533;28;20053;-69
2024/01/24 09:04:32;;;;;;;29.27;7.50;;;;;;;;;;5022361;28;20057;-69
2024/01/24 09:06:59;;;;;;;40.42;8.73;;;;;;;;;;4992605;28;20046;-69
2024/01/24 09:09:25;;;;;;;39.80;9.13;;;;;;;;;;4987391;28;20054;-69
2024/01/24 09:11:51;;;;;;;40.35;8.82;;;;;;;;;;4986210;28;20076;-69
2024/01/24 09:14:17;;;;;;;38.28;9.95;;;;;;;;;;4986890;28;20464;-68
2024/01/24 09:16:43;;;;;;;35.00;9.25;;;;;;;;;;4989470;28;20129;-68
2024/01/24 09:19:09;;;;;;;38.38;8.77;;;;;;;;;;4990604;28;20133;-68
2024/01/24 09:21:36;;;;;;;41.95;9.70;;;;;;;;;;4986447;28;20466;-69
2024/01/24 09:24:03;;;;;;;47.20;10.18;;;;;;;;;;4992243;28;20046;-69
2024/01/24 09:26:30;;;;;;;37.15;8.93;;;;;;;;;;4989645;28;20046;-69
2024/01/24 09:28:56;;;;;;;48.80;10.27;;;;;;;;;;4988658;28;20042;-68
2024/01/24 09:31:22;;;;;;;41.80;9.18;;;;;;;;;;4990530;28;20038;-68
2024/01/24 09:33:48;;;;;;;39.95;8.07;;;;;;;;;;4989873;28;20082;-69
2024/01/24 09:36:14;;;;;;;42.83;9.48;;;;;;;;;;4986903;28;20136;-68
2024/01/24 09:38:44;;;;;;;55.10;11.52;;;;;;;;;;4986387;28;20045;-69
2024/01/24 09:41:14;;;;;;;36.33;9.15;;;;;;;;;;4990970;28;20050;-69
2024/01/24 09:43:40;;;;;;;41.97;8.45;;;;;;;;;;4988716;28;20054;-69
2024/01/24 09:46:09;;;;;;;39.78;8.70;;;;;;;;;;4986883;28;20517;-68
2024/01/24 09:48:35;;;;;;;49.35;11.13;;;;;;;;;;4989770;28;20490;-68
2024/01/24 09:51:01;;;;;;;41.53;9.52;;;;;;;;;;4986934;28;20038;-68
2024/01/24 09:53:28;;;;;;;37.45;8.90;;;;;;;;;;4991829;28;20097;-68
2024/01/24 09:55:55;;;;;;;38.42;8.63;;;;;;;;;;4990427;28;20038;-68
2024/01/24 09:58:21;;;;;;;37.42;8.20;;;;;;;;;;4990393;28;20053;-68
2024/01/24 10:00:47;;;;;;;51.90;9.25;;;;;;;;;;4989745;28;20061;-68
2024/01/24 10:03:13;;;;;;;37.90;9.07;;;;;;;;;;4987357;28;20047;-68
2024/01/24 10:05:41;;;;;;;51.22;10.48;;;;;;;;;;4989285;28;20065;-69
2024/01/24 10:08:10;;;;;;;36.83;7.43;;;;;;;;;;4989490;28;20056;-68
2024/01/24 10:10:36;;;;;;;31.90;7.60;;;;;;;;;;4990712;28;20546;-69
2024/01/24 10:13:03;;;;;;;41.75;8.80;;;;;;;;;;4990800;28;20093;-68
2024/01/24 10:15:30;;;;;;;30.73;7.78;;;;;;;;;;4990065;28;20402;-69
2024/01/24 10:17:56;;;;;;;38.55;9.27;;;;;;;;;;4991283;28;20433;-68
2024/01/24 10:20:22;;;;;;;36.53;8.70;;;;;;;;;;4985399;28;20050;-69
2024/01/24 10:22:50;;;;;;;37.72;8.07;;;;;;;;;;4987051;28;20425;-68
2024/01/24 10:25:17;;;;;;;33.90;7.57;;;;;;;;;;5022071;28;20081;-68
2024/01/24 10:27:43;;;;;;;41.13;8.07;;;;;;;;;;4990029;28;20046;-69
2024/01/24 10:30:11;;;;;;;28.42;7.68;;;;;;;;;;4988807;28;20097;-68
2024/01/24 10:32:37;;;;;;;31.92;8.00;;;;;;;;;;4989928;28;20038;-69
2024/01/24 10:35:06;;;;;;;39.15;8.20;;;;;;;;;;4988573;28;20042;-68
2024/01/24 10:37:33;;;;;;;40.58;7.78;;;;;;;;;;4986180;28;20770;-68
2024/01/24 10:40:06;;;;;;;35.17;8.50;;;;;;;;;;4987744;28;20038;-68
2024/01/24 10:42:36;;;;;;;27.95;7.03;;;;;;;;;;4990241;28;20042;-69
2024/01/24 10:45:07;;;;;;;31.33;7.85;;;;;;;;;;4987285;28;20050;-68
2024/01/24 10:47:36;;;;;;;30.42;6.97;;;;;;;;;;4985828;28;20476;-68
2024/01/24 10:50:06;;;;;;;35.22;8.35;;;;;;;;;;4989378;28;20053;-68
2024/01/24 10:52:33;;;;;;;32.38;7.25;;;;;;;;;;4987678;28;20046;-69
2024/01/24 10:55:04;;;;;;;35.03;7.18;;;;;;;;;;4990655;28;20132;-68
2024/01/24 10:57:30;;;;;;;29.95;7.25;;;;;;;;;;4987543;28;20142;-68
2024/01/24 10:59:57;;;;;;;37.47;9.30;;;;;;;;;;4991063;28;20046;-69
2024/01/24 11:02:23;;;;;;;27.92;7.25;;;;;;;;;;4986143;28;20042;-68
2024/01/24 11:04:50;;;;;;;41.30;8.88;;;;;;;;;;4988927;28;20519;-69
2024/01/24 11:07:20;;;;;;;35.58;10.73;;;;;;;;;;4987648;28;20053;-69
2024/01/24 11:10:03;;;;;;;19.35;6.78;;;;;;;;;;4985391;28;20046;-68
2024/01/24 11:12:29;;;;;;;29.52;8.32;;;;;;;;;;4988385;28;20055;-69
2024/01/24 11:15:05;;;;;;;28.23;7.45;;;;;;;;;;4990527;28;20073;-68
2024/01/24 11:17:32;;;;;;;33.13;7.93;;;;;;;;;;4988094;28;20073;-68
2024/01/24 11:19:58;;;;;;;34.72;8.45;;;;;;;;;;4988494;28;20041;-68
2024/01/24 11:22:25;;;;;;;37.72;8.18;;;;;;;;;;4987763;28;20470;-69
2024/01/24 11:24:55;;;;;;;27.40;8.05;;;;;;;;;;4988140;28;20138;-68
2024/01/24 11:27:32;;;;;;;36.55;7.70;;;;;;;;;;5020876;28;20062;-69
2024/01/24 11:30:00;;;;;;;38.53;7.93;;;;;;;;;;4988136;28;20060;-68
2024/01/24 11:32:44;;;;;;;29.30;7.60;;;;;;;;;;4988254;28;20769;-68
2024/01/24 11:35:29;;;;;;;40.97;8.60;;;;;;;;;;4982958;28;20111;-69
2024/01/24 11:37:55;;;;;;;27.00;6.75;;;;;;;;;;4989043;28;20093;-68
2024/01/24 11:40:24;;;;;;;29.15;6.55;;;;;;;;;;4984989;28;20058;-69
2024/01/24 11:42:54;;;;;;;26.08;5.90;;;;;;;;;;4983948;28;20042;-68
2024/01/24 11:45:21;;;;;;;31.17;7.50;;;;;;;;;;4984129;28;20056;-69
2024/01/24 11:47:47;;;;;;;39.45;8.45;;;;;;;;;;4984804;28;20494;-69
2024/01/24 11:50:13;;;;;;;32.72;8.77;;;;;;;;;;4985520;28;20085;-68
2024/01/24 11:52:40;;;;;;;34.53;8.50;;;;;;;;;;4985682;28;20109;-68
2024/01/24 11:55:07;;;;;;;27.92;7.03;;;;;;;;;;4987054;28;20565;-68
2024/01/24 11:57:33;;;;;;;24.48;6.85;;;;;;;;;;4985653;28;20054;-68
2024/01/24 11:59:59;;;;;;;30.58;7.38;;;;;;;;;;4987353;28;20438;-68
2024/01/24 12:02:25;;;;;;;28.92;7.38;;;;;;;;;;4984872;28;20141;-68
2024/01/24 12:04:52;;;;;;;31.02;7.20;;;;;;;;;;4986347;28;20046;-68
2024/01/24 12:07:18;;;;;;;30.35;6.82;;;;;;;;;;4985785;28;20034;-68
2024/01/24 12:09:44;;;;;;;25.80;6.68;;;;;;;;;;4990295;28;20105;-68
2024/01/24 12:12:11;;;;;;;31.45;7.55;;;;;;;;;;4984829;28;20058;-68
2024/01/24 12:14:37;;;;;;;27.75;7.15;;;;;;;;;;5013197;28;20046;-68
2024/01/24 12:17:07;;;;;;;25.70;6.97;;;;;;;;;;4982959;28;20123;-68
2024/01/24 12:19:34;;;;;;;29.35;7.35;;;;;;;;;;4977168;28;20406;-68
2024/01/24 12:22:00;;;;;;;26.05;7.47;;;;;;;;;;4986035;28;20158;-68
2024/01/24 12:24:29;;;;;;;22.17;6.78;;;;;;;;;;4992478;28;20064;-68
2024/01/24 12:26:56;;;;;;;35.60;7.28;;;;;;;;;;4994499;28;20419;-68
2024/01/24 12:29:22;;;;;;;31.73;7.30;;;;;;;;;;4988575;28;20041;-68
2024/01/24 12:31:48;;;;;;;23.75;8.02;;;;;;;;;;4985060;28;20042;-68
2024/01/24 12:34:14;;;;;;;33.45;7.88;;;;;;;;;;4983575;28;20085;-68
2024/01/24 12:36:44;;;;;;;25.42;7.88;;;;;;;;;;4983438;28;20034;-67
2024/01/24 12:39:10;;;;;;;35.78;8.23;;;;;;;;;;4985512;28;20108;-68
2024/01/24 12:41:39;;;;;;;30.50;7.63;;;;;;;;;;4988737;28;20133;-68
2024/01/24 12:44:05;;;;;;;24.33;6.32;;;;;;;;;;4992865;28;20058;-68
2024/01/24 12:46:31;;;;;;;33.95;7.53;;;;;;;;;;4995015;28;20487;-68
2024/01/24 12:48:58;;;;;;;38.10;8.25;;;;;;;;;;4992151;28;20105;-68
2024/01/24 12:51:24;;;;;;;25.77;7.00;;;;;;;;;;5000879;28;20054;-68
2024/01/24 12:53:49;;;;;;;30.23;7.03;;;;;;;;;;4994543;28;20046;-68
2024/01/24 12:56:18;;;;;;;35.47;8.10;;;;;;;;;;4983035;28;20058;-68
2024/01/24 12:58:44;;;;;;;42.63;8.52;;;;;;;;;;5002931;28;20049;-68
2024/01/24 13:01:11;;;;;;;24.92;6.63;;;;;;;;;;5005685;28;20049;-68
2024/01/24 13:03:37;;;;;;;32.28;8.18;;;;;;;;;;4995845;28;20038;-68
2024/01/24 13:06:03;;;;;;;33.35;8.60;;;;;;;;;;4998645;28;20052;-69
2024/01/24 13:08:29;;;;;;;36.28;9.38;;;;;;;;;;4997381;28;20450;-68
2024/01/24 13:10:55;;;;;;;23.35;7.10;;;;;;;;;;4991834;28;20061;-68
2024/01/24 13:13:21;;;;;;;30.42;8.18;;;;;;;;;;4998953;28;20093;-69
2024/01/24 13:15:52;;;;;;;31.45;8.35;;;;;;;;;;4998737;28;20088;-68
2024/01/24 13:18:18;;;;;;;33.47;8.65;;;;;;;;;;5004007;28;20053;-68
2024/01/24 13:20:44;;;;;;;36.33;8.73;;;;;;;;;;4994013;28;20049;-68
2024/01/24 13:23:10;;;;;;;38.03;7.53;;;;;;;;;;5005424;28;20057;-68
2024/01/24 13:25:36;;;;;;;36.72;9.10;;;;;;;;;;5007745;28;20065;-68
2024/01/24 13:28:03;;;;;;;32.97;7.95;;;;;;;;;;4998820;28;20049;-69
2024/01/24 13:30:29;;;;;;;38.25;9.20;;;;;;;;;;5005417;28;20058;-68
2024/01/24 13:32:55;;;;;;;32.78;8.77;;;;;;;;;;5002746;28;20046;-69
2024/01/24 13:35:21;;;;;;;29.42;7.25;;;;;;;;;;5001203;28;20093;-69
2024/01/24 13:37:47;;;;;;;32.08;8.57;;;;;;;;;;5018991;28;20100;-68
2024/01/24 13:40:13;;;;;;;31.73;8.73;;;;;;;;;;5018045;28;20046;-69
2024/01/24 13:42:39;;;;;;;26.70;7.07;;;;;;;;;;4992298;28;20136;-68
2024/01/24 13:45:05;;;;;;;32.75;8.50;;;;;;;;;;4989853;28;20556;-68
2024/01/24 13:47:31;;;;;;;31.75;7.72;;;;;;;;;;5019052;28;20406;-68
2024/01/24 13:49:57;;;;;;;35.22;8.43;;;;;;;;;;4994967;28;20052;-68
2024/01/24 13:52:23;;;;;;;37.75;7.68;;;;;;;;;;4980255;28;20502;-68
2024/01/24 13:54:49;;;;;;;40.40;8.68;;;;;;;;;;4985982;28;20046;-68
2024/01/24 13:57:15;;;;;;;36.30;7.97;;;;;;;;;;4990788;28;20057;-68
2024/01/24 13:59:41;;;;;;;34.80;8.13;;;;;;;;;;4994194;28;20125;-68
2024/01/24 14:02:08;;;;;;;37.60;8.82;;;;;;;;;;4991122;28;20046;-69
2024/01/24 14:04:34;;;;;;;31.98;8.65;;;;;;;;;;4995903;28;20072;-68
2024/01/24 14:07:01;;;;;;;31.35;7.82;;;;;;;;;;4984816;28;20042;-69
2024/01/24 14:09:27;;;;;;;29.00;7.05;;;;;;;;;;4986250;28;20058;-68
2024/01/24 14:11:54;;;;;;;44.65;9.00;;;;;;;;;;4983252;28;20054;-68
2024/01/24 14:14:20;;;;;;;38.95;8.13;;;;;;;;;;4989860;28;20050;-68
2024/01/24 14:16:46;;;;;;;34.22;8.35;;;;;;;;;;4989378;28;20121;-68
2024/01/24 14:19:12;;;;;;;42.10;7.78;;;;;;;;;;4992707;28;20042;-68
2024/01/24 14:21:38;;;;;;;40.38;8.75;;;;;;;;;;4987024;28;20046;-68
2024/01/24 14:24:04;;;;;;;40.40;9.07;;;;;;;;;;5001329;28;20406;-68
2024/01/24 14:26:30;;;;;;;34.65;7.22;;;;;;;;;;4993708;28;20050;-68